createdAt,value
2017-02-27T00:00:28.848Z,23.59
2017-02-27T00:01:09.347Z,23.56
2017-02-27T00:01:49.847Z,23.53
2017-02-27T00:02:30.339Z,23.56
2017-02-27T00:03:10.841Z,23.56
2017-02-27T00:03:51.342Z,23.57
2017-02-27T00:04:31.838Z,23.59
2017-02-27T00:05:12.333Z,23.55
2017-02-27T00:05:52.840Z,23.56
2017-02-27T00:06:33.325Z,23.56
2017-02-27T00:07:13.814Z,23.52
2017-02-27T00:07:54.296Z,23.59
2017-02-27T00:08:34.791Z,23.64
2017-02-27T00:09:15.355Z,23.6
2017-02-27T00:09:55.833Z,23.56
2017-02-27T00:10:36.338Z,23.55
2017-02-27T00:11:16.833Z,23.55
2017-02-27T00:11:57.331Z,23.57
2017-02-27T00:12:37.835Z,23.59
2017-02-27T00:13:18.330Z,23.57
2017-02-27T00:13:58.836Z,23.59
2017-02-27T00:14:39.333Z,23.57
2017-02-27T00:15:19.832Z,23.59
2017-02-27T00:16:00.318Z,23.57
2017-02-27T00:16:40.829Z,23.67
2017-02-27T00:17:21.328Z,23.67
2017-02-27T00:18:01.827Z,23.7
2017-02-27T00:18:42.321Z,23.74
2017-02-27T00:19:22.805Z,23.67
2017-02-27T00:20:03.296Z,23.64
2017-02-27T00:20:43.801Z,23.64
2017-02-27T00:21:24.297Z,23.71
2017-02-27T00:22:04.791Z,23.66
2017-02-27T00:22:45.284Z,23.67
2017-02-27T00:23:25.969Z,23.6
2017-02-27T00:24:06.469Z,23.63
2017-02-27T00:24:46.972Z,23.62
2017-02-27T00:25:27.477Z,23.71
2017-02-27T00:26:07.977Z,23.64
2017-02-27T00:26:48.478Z,23.66
2017-02-27T00:27:28.975Z,23.7
2017-02-27T00:28:09.471Z,23.64
2017-02-27T00:28:49.996Z,23.71
2017-02-27T00:29:30.478Z,23.63
2017-02-27T00:30:10.971Z,23.66
2017-02-27T00:30:51.474Z,23.59
2017-02-27T00:31:31.966Z,23.63
2017-02-27T00:32:12.469Z,23.56
2017-02-27T00:32:52.962Z,23.62
2017-02-27T00:33:33.450Z,23.67
2017-02-27T00:34:13.962Z,23.56
2017-02-27T00:34:54.465Z,23.59
2017-02-27T00:35:34.955Z,23.62
2017-02-27T00:36:15.461Z,23.6
2017-02-27T00:36:55.951Z,23.64
2017-02-27T00:37:36.462Z,23.57
2017-02-27T00:38:16.967Z,23.6
2017-02-27T00:38:57.468Z,23.63
2017-02-27T00:39:37.962Z,23.64
2017-02-27T00:40:18.462Z,23.59
2017-02-27T00:40:58.948Z,23.59
2017-02-27T00:41:39.437Z,23.57
2017-02-27T00:42:19.928Z,23.57
2017-02-27T00:43:00.427Z,23.56
2017-02-27T00:43:40.947Z,23.56
2017-02-27T00:44:21.401Z,23.56
2017-02-27T00:45:01.903Z,23.56
2017-02-27T00:45:42.404Z,23.56
2017-02-27T00:46:22.904Z,23.57
2017-02-27T00:47:03.389Z,23.57
2017-02-27T00:47:43.878Z,23.57
2017-02-27T00:48:24.374Z,23.59
2017-02-27T00:49:04.871Z,23.52
2017-02-27T00:49:45.354Z,23.52
2017-02-27T00:50:25.851Z,23.53
2017-02-27T00:51:06.348Z,23.59
2017-02-27T00:51:46.838Z,23.55
2017-02-27T00:52:27.338Z,23.53
2017-02-27T00:53:07.848Z,23.6
2017-02-27T00:53:48.344Z,23.57
2017-02-27T00:54:28.846Z,23.53
2017-02-27T00:55:09.347Z,23.56
2017-02-27T00:55:49.835Z,23.62
2017-02-27T00:56:30.328Z,23.63
2017-02-27T00:57:10.819Z,23.59
2017-02-27T00:57:51.311Z,23.59
2017-02-27T00:58:31.814Z,23.56
2017-02-27T00:59:12.315Z,23.56
2017-02-27T00:59:52.814Z,23.55
2017-02-27T01:00:33.314Z,23.63
2017-02-27T01:01:13.797Z,23.59
2017-02-27T01:01:54.291Z,23.56
2017-02-27T01:02:34.791Z,23.59
2017-02-27T01:03:15.294Z,23.63
2017-02-27T01:03:55.788Z,23.64
2017-02-27T01:04:36.273Z,23.59
2017-02-27T01:05:16.762Z,23.57
2017-02-27T01:05:57.263Z,23.57
2017-02-27T01:06:37.755Z,23.6
2017-02-27T01:07:18.241Z,23.56
2017-02-27T01:07:58.734Z,23.62
2017-02-27T01:08:39.227Z,23.57
2017-02-27T01:09:19.731Z,23.6
2017-02-27T01:10:00.410Z,23.6
2017-02-27T01:10:40.904Z,23.57
2017-02-27T01:11:21.402Z,23.71
2017-02-27T01:12:01.884Z,23.62
2017-02-27T01:12:42.374Z,23.71
2017-02-27T01:13:22.884Z,23.62
2017-02-27T01:14:03.430Z,23.66
2017-02-27T01:14:43.918Z,23.6
2017-02-27T01:15:24.411Z,23.55
2017-02-27T01:16:04.925Z,23.57
2017-02-27T01:16:45.423Z,23.55
2017-02-27T01:17:25.928Z,23.59
2017-02-27T01:18:06.424Z,23.56
2017-02-27T01:18:46.918Z,23.56
2017-02-27T01:19:27.423Z,23.57
2017-02-27T01:20:07.915Z,23.56
2017-02-27T01:20:48.428Z,23.57
2017-02-27T01:21:28.924Z,23.57
2017-02-27T01:22:09.421Z,23.55
2017-02-27T01:22:49.921Z,23.6
2017-02-27T01:23:30.423Z,23.57
2017-02-27T01:24:10.916Z,23.6
2017-02-27T01:24:51.418Z,23.6
2017-02-27T01:25:31.909Z,23.52
2017-02-27T01:26:12.418Z,23.6
2017-02-27T01:26:52.911Z,23.59
2017-02-27T01:27:33.414Z,23.56
2017-02-27T01:28:13.902Z,23.55
2017-02-27T01:28:54.403Z,23.56
2017-02-27T01:29:34.903Z,23.6
2017-02-27T01:30:15.388Z,23.57
2017-02-27T01:30:55.876Z,23.59
2017-02-27T01:31:36.389Z,23.57
2017-02-27T01:32:16.885Z,23.56
2017-02-27T01:32:57.381Z,23.63
2017-02-27T01:33:37.875Z,23.6
2017-02-27T01:34:18.492Z,23.59
2017-02-27T01:37:00.479Z,23.57
2017-02-27T01:38:21.476Z,23.6
2017-02-27T01:41:03.460Z,23.57
2017-02-27T01:45:47.160Z,23.63
2017-02-27T01:48:29.159Z,23.55
2017-02-27T01:49:09.656Z,23.59
2017-02-27T01:52:32.122Z,23.56
2017-02-27T01:53:12.605Z,23.5
2017-02-27T01:53:53.101Z,23.53
2017-02-27T01:54:33.597Z,23.53
2017-02-27T01:55:14.095Z,23.56
2017-02-27T01:55:54.596Z,23.56
2017-02-27T01:56:35.095Z,23.55
2017-02-27T01:57:15.594Z,23.57
2017-02-27T01:57:56.085Z,23.55
2017-02-27T01:58:36.589Z,23.63
2017-02-27T01:59:17.096Z,23.67
2017-02-27T01:59:57.586Z,23.7
2017-02-27T02:00:38.092Z,23.59
2017-02-27T02:01:18.594Z,23.6
2017-02-27T02:01:59.084Z,23.6
2017-02-27T02:02:39.575Z,23.59
2017-02-27T02:03:20.084Z,23.59
2017-02-27T02:04:00.585Z,23.53
2017-02-27T02:04:41.082Z,23.62
2017-02-27T02:05:21.584Z,23.57
2017-02-27T02:06:02.073Z,23.56
2017-02-27T02:06:42.563Z,23.57
2017-02-27T02:07:23.049Z,23.55
2017-02-27T02:08:03.558Z,23.56
2017-02-27T02:08:44.046Z,23.53
2017-02-27T02:09:24.537Z,23.57
2017-02-27T02:10:05.317Z,23.56
2017-02-27T02:10:45.799Z,23.55
2017-02-27T02:11:26.315Z,23.59
2017-02-27T02:12:06.811Z,23.56
2017-02-27T02:12:47.313Z,23.55
2017-02-27T02:13:27.795Z,23.52
2017-02-27T02:14:08.290Z,23.56
2017-02-27T02:14:48.783Z,23.48
2017-02-27T02:15:29.278Z,23.56
2017-02-27T02:16:09.783Z,23.55
2017-02-27T02:16:50.279Z,23.56
2017-02-27T02:17:30.779Z,23.56
2017-02-27T02:18:11.275Z,23.57
2017-02-27T02:18:51.759Z,23.55
2017-02-27T02:19:32.255Z,23.66
2017-02-27T02:20:12.749Z,23.56
2017-02-27T02:20:53.239Z,23.59
2017-02-27T02:21:33.734Z,23.57
2017-02-27T02:22:14.226Z,23.64
2017-02-27T02:22:54.718Z,23.67
2017-02-27T02:23:35.218Z,23.64
2017-02-27T02:24:15.723Z,23.6
2017-02-27T02:24:56.215Z,23.57
2017-02-27T02:25:36.709Z,23.67
2017-02-27T02:26:17.198Z,23.57
2017-02-27T02:26:57.692Z,23.57
2017-02-27T02:27:38.195Z,23.57
2017-02-27T02:28:18.681Z,23.64
2017-02-27T02:28:59.175Z,23.66
2017-02-27T02:29:39.664Z,23.59
2017-02-27T02:30:20.157Z,23.56
2017-02-27T02:31:00.643Z,23.66
2017-02-27T02:31:41.133Z,23.57
2017-02-27T02:32:21.622Z,23.57
2017-02-27T02:33:02.115Z,23.59
2017-02-27T02:33:42.606Z,23.56
2017-02-27T02:34:23.117Z,23.55
2017-02-27T02:35:03.606Z,23.56
2017-02-27T02:35:44.114Z,23.6
2017-02-27T02:36:24.606Z,23.57
2017-02-27T02:37:05.103Z,23.57
2017-02-27T02:37:45.615Z,23.62
2017-02-27T02:38:26.099Z,23.66
2017-02-27T02:39:06.608Z,23.62
2017-02-27T02:39:47.119Z,23.55
2017-02-27T02:40:27.616Z,23.66
2017-02-27T02:41:08.111Z,23.67
2017-02-27T02:41:48.609Z,23.62
2017-02-27T02:42:29.107Z,23.7
2017-02-27T02:43:09.592Z,23.72
2017-02-27T02:43:50.080Z,23.66
2017-02-27T02:44:30.575Z,23.6
2017-02-27T02:45:11.077Z,23.57
2017-02-27T02:45:51.552Z,23.56
2017-02-27T02:46:32.045Z,23.57
2017-02-27T02:47:12.551Z,23.56
2017-02-27T02:47:53.043Z,23.67
2017-02-27T02:48:33.535Z,23.59
2017-02-27T02:49:14.035Z,23.59
2017-02-27T02:49:54.523Z,23.55
2017-02-27T02:50:35.015Z,23.63
2017-02-27T02:51:15.512Z,23.7
2017-02-27T02:51:55.994Z,23.71
2017-02-27T02:52:36.493Z,23.66
2017-02-27T02:53:16.993Z,23.63
2017-02-27T02:53:57.492Z,23.59
2017-02-27T02:54:37.993Z,23.59
2017-02-27T02:55:18.493Z,23.57
2017-02-27T02:55:58.991Z,23.59
2017-02-27T02:56:39.490Z,23.57
2017-02-27T02:57:19.998Z,23.6
2017-02-27T02:58:00.481Z,23.7
2017-02-27T02:58:40.978Z,23.64
2017-02-27T02:59:21.480Z,23.74
2017-02-27T03:00:01.993Z,23.71
2017-02-27T03:00:42.490Z,23.62
2017-02-27T03:01:22.986Z,23.72
2017-02-27T03:02:03.473Z,23.67
2017-02-27T03:02:43.960Z,23.6
2017-02-27T03:03:24.454Z,23.64
2017-02-27T03:04:04.951Z,23.59
2017-02-27T03:04:46.422Z,23.71
2017-02-27T03:05:25.931Z,23.55
2017-02-27T03:06:06.430Z,23.66
2017-02-27T03:06:46.922Z,23.57
2017-02-27T03:07:27.433Z,23.59
2017-02-27T03:08:07.912Z,23.63
2017-02-27T03:08:48.403Z,23.6
2017-02-27T03:09:28.898Z,23.67
2017-02-27T03:10:09.395Z,23.64
2017-02-27T03:10:50.029Z,23.6
2017-02-27T03:11:30.525Z,23.57
2017-02-27T03:12:11.020Z,23.64
2017-02-27T03:14:23.822Z,23.67
2017-02-27T03:15:04.312Z,23.67
2017-02-27T03:15:44.797Z,23.64
2017-02-27T03:16:25.291Z,23.62
2017-02-27T03:17:05.785Z,23.62
2017-02-27T03:17:46.275Z,23.64
2017-02-27T03:18:26.762Z,23.57
2017-02-27T03:19:07.254Z,23.63
2017-02-27T03:19:47.756Z,23.66
2017-02-27T03:20:28.233Z,23.63
2017-02-27T03:21:08.716Z,23.67
2017-02-27T03:21:49.205Z,23.7
2017-02-27T03:22:29.685Z,23.66
2017-02-27T03:23:10.181Z,23.64
2017-02-27T03:23:50.674Z,23.67
2017-02-27T03:24:31.179Z,23.64
2017-02-27T03:25:11.680Z,23.66
2017-02-27T03:25:52.176Z,23.64
2017-02-27T03:26:32.675Z,23.66
2017-02-27T03:27:13.163Z,23.63
2017-02-27T03:27:53.649Z,23.64
2017-02-27T03:28:34.131Z,23.62
2017-02-27T03:29:14.625Z,23.6
2017-02-27T03:29:55.122Z,23.59
2017-02-27T03:30:35.611Z,23.64
2017-02-27T03:31:16.116Z,23.56
2017-02-27T03:31:56.617Z,23.66
2017-02-27T03:32:37.122Z,23.63
2017-02-27T03:33:17.605Z,23.63
2017-02-27T03:33:58.094Z,23.63
2017-02-27T03:34:38.586Z,23.67
2017-02-27T03:35:19.093Z,23.6
2017-02-27T03:35:59.571Z,23.56
2017-02-27T03:36:40.089Z,23.55
2017-02-27T03:37:20.573Z,23.56
2017-02-27T03:38:01.066Z,23.63
2017-02-27T03:38:41.562Z,23.56
2017-02-27T03:39:22.053Z,23.53
2017-02-27T03:40:02.542Z,23.56
2017-02-27T03:40:43.029Z,23.59
2017-02-27T03:41:23.533Z,23.55
2017-02-27T03:42:04.015Z,23.57
2017-02-27T03:42:44.498Z,23.56
2017-02-27T03:43:24.983Z,23.67
2017-02-27T03:44:05.465Z,23.64
2017-02-27T03:44:45.972Z,23.63
2017-02-27T03:45:26.457Z,23.6
2017-02-27T03:46:06.944Z,23.55
2017-02-27T03:46:47.430Z,23.63
2017-02-27T03:47:27.927Z,23.56
2017-02-27T03:48:08.418Z,23.53
2017-02-27T03:48:48.902Z,23.56
2017-02-27T03:49:29.385Z,23.67
2017-02-27T03:50:09.876Z,23.67
2017-02-27T03:50:50.371Z,23.66
2017-02-27T03:51:30.866Z,23.67
2017-02-27T03:52:11.352Z,23.64
2017-02-27T03:52:51.849Z,23.66
2017-02-27T03:53:32.331Z,23.71
2017-02-27T03:54:12.840Z,23.64
2017-02-27T03:54:53.341Z,23.63
2017-02-27T03:55:33.843Z,23.63
2017-02-27T03:56:14.345Z,23.63
2017-02-27T03:56:54.830Z,23.59
2017-02-27T03:57:35.317Z,23.57
2017-02-27T03:58:15.797Z,23.57
2017-02-27T03:58:56.296Z,23.57
2017-02-27T03:59:36.786Z,23.59
2017-02-27T04:00:17.271Z,23.59
2017-02-27T04:00:57.760Z,23.55
2017-02-27T04:01:38.241Z,23.59
2017-02-27T04:02:18.738Z,23.57
2017-02-27T04:02:59.231Z,23.59
2017-02-27T04:03:39.721Z,23.52
2017-02-27T04:04:20.208Z,23.53
2017-02-27T04:05:00.706Z,23.59
2017-02-27T04:05:41.200Z,23.56
2017-02-27T04:06:21.680Z,23.57
2017-02-27T04:07:02.171Z,23.57
2017-02-27T04:07:42.670Z,23.53
2017-02-27T04:08:23.164Z,23.6
2017-02-27T04:09:03.651Z,23.57
2017-02-27T04:09:44.134Z,23.55
2017-02-27T04:10:24.626Z,23.59
2017-02-27T04:11:05.121Z,23.59
2017-02-27T04:11:45.614Z,23.57
2017-02-27T04:12:26.113Z,23.66
2017-02-27T04:13:06.618Z,23.67
2017-02-27T04:13:47.129Z,23.66
2017-02-27T04:14:27.622Z,23.6
2017-02-27T04:15:08.120Z,23.57
2017-02-27T04:15:48.604Z,23.64
2017-02-27T04:16:29.105Z,23.56
2017-02-27T04:17:09.609Z,23.57
2017-02-27T04:17:50.118Z,23.56
2017-02-27T04:18:30.612Z,23.59
2017-02-27T04:19:11.094Z,23.56
2017-02-27T04:19:51.586Z,23.57
2017-02-27T04:20:32.086Z,23.57
2017-02-27T04:21:12.570Z,23.59
2017-02-27T04:21:53.068Z,23.62
2017-02-27T04:22:33.574Z,23.64
2017-02-27T04:23:14.085Z,23.6
2017-02-27T04:23:54.582Z,23.66
2017-02-27T04:24:35.087Z,23.59
2017-02-27T04:25:15.567Z,23.64
2017-02-27T04:25:56.051Z,23.67
2017-02-27T04:26:36.556Z,23.59
2017-02-27T04:27:17.302Z,23.64
2017-02-27T04:27:57.808Z,23.67
2017-02-27T04:28:38.320Z,23.57
2017-02-27T04:29:18.815Z,23.57
2017-02-27T04:29:59.311Z,23.6
2017-02-27T04:30:39.801Z,23.59
2017-02-27T04:31:20.288Z,23.59
2017-02-27T04:32:00.775Z,23.59
2017-02-27T04:32:41.280Z,23.59
2017-02-27T04:33:21.779Z,23.57
2017-02-27T04:34:02.272Z,23.56
2017-02-27T04:34:42.760Z,23.57
2017-02-27T04:35:23.250Z,23.55
2017-02-27T04:36:03.755Z,23.57
2017-02-27T04:36:44.238Z,23.55
2017-02-27T04:37:24.729Z,23.6
2017-02-27T04:38:05.215Z,23.57
2017-02-27T04:38:45.705Z,23.52
2017-02-27T04:39:26.203Z,23.57
2017-02-27T04:40:06.699Z,23.6
2017-02-27T04:40:47.198Z,23.56
2017-02-27T04:41:27.685Z,23.57
2017-02-27T04:42:08.176Z,23.57
2017-02-27T04:42:48.668Z,23.57
2017-02-27T04:43:29.169Z,23.63
2017-02-27T04:44:09.646Z,23.56
2017-02-27T04:44:50.141Z,23.63
2017-02-27T04:45:30.644Z,23.64
2017-02-27T04:46:11.136Z,23.64
2017-02-27T04:46:51.649Z,23.6
2017-02-27T04:47:32.146Z,23.57
2017-02-27T04:48:12.634Z,23.56
2017-02-27T04:48:53.145Z,23.57
2017-02-27T04:49:33.639Z,23.6
2017-02-27T04:50:14.283Z,23.56
2017-02-27T04:50:54.780Z,23.57
2017-02-27T04:51:35.277Z,23.57
2017-02-27T04:52:15.778Z,23.56
2017-02-27T04:52:56.330Z,23.56
2017-02-27T04:53:36.834Z,23.57
2017-02-27T04:54:17.334Z,23.62
2017-02-27T04:54:57.837Z,23.57
2017-02-27T04:55:38.330Z,23.56
2017-02-27T04:56:18.832Z,23.57
2017-02-27T04:56:59.341Z,23.57
2017-02-27T04:57:39.919Z,23.56
2017-02-27T04:58:20.412Z,23.57
2017-02-27T04:59:00.906Z,23.56
2017-02-27T04:59:41.397Z,23.53
2017-02-27T05:00:21.907Z,23.55
2017-02-27T05:01:02.400Z,23.56
2017-02-27T05:01:42.902Z,23.56
2017-02-27T05:02:23.388Z,23.55
2017-02-27T05:03:03.883Z,23.56
2017-02-27T05:03:44.369Z,23.6
2017-02-27T05:04:24.880Z,23.62
2017-02-27T05:05:05.377Z,23.56
2017-02-27T05:05:45.866Z,23.55
2017-02-27T05:06:26.357Z,23.56
2017-02-27T05:07:06.851Z,23.55
2017-02-27T05:07:47.344Z,23.56
2017-02-27T05:08:27.827Z,23.64
2017-02-27T05:09:08.321Z,23.6
2017-02-27T05:09:48.829Z,23.56
2017-02-27T05:10:29.320Z,23.66
2017-02-27T05:11:09.825Z,23.59
2017-02-27T05:11:50.313Z,23.59
2017-02-27T05:12:30.815Z,23.59
2017-02-27T05:13:11.306Z,23.6
2017-02-27T05:13:51.817Z,23.64
2017-02-27T05:14:32.309Z,23.63
2017-02-27T05:15:12.796Z,23.66
2017-02-27T05:15:53.289Z,23.64
2017-02-27T05:16:33.784Z,23.57
2017-02-27T05:17:14.268Z,23.56
2017-02-27T05:17:54.756Z,23.55
2017-02-27T05:18:35.255Z,23.62
2017-02-27T05:19:15.748Z,23.59
2017-02-27T05:19:56.238Z,23.56
2017-02-27T05:20:36.719Z,23.56
2017-02-27T05:21:17.213Z,23.56
2017-02-27T05:21:57.708Z,23.53
2017-02-27T05:22:38.375Z,23.56
2017-02-27T05:23:18.865Z,23.57
2017-02-27T05:23:59.360Z,23.56
2017-02-27T05:24:39.910Z,23.56
2017-02-27T05:25:20.398Z,23.55
2017-02-27T05:26:00.895Z,23.57
2017-02-27T05:26:41.405Z,23.63
2017-02-27T05:27:21.911Z,23.6
2017-02-27T05:28:02.400Z,23.59
2017-02-27T05:28:42.904Z,23.52
2017-02-27T05:29:23.405Z,23.57
2017-02-27T05:30:03.907Z,23.56
2017-02-27T05:30:44.393Z,23.57
2017-02-27T05:31:24.894Z,23.57
2017-02-27T05:32:05.375Z,23.57
2017-02-27T05:32:45.876Z,23.59
2017-02-27T05:33:26.362Z,23.53
2017-02-27T05:34:06.858Z,23.57
2017-02-27T05:34:47.397Z,23.56
2017-02-27T05:35:27.905Z,23.55
2017-02-27T05:36:08.394Z,23.53
2017-02-27T05:36:48.912Z,23.57
2017-02-27T05:37:29.405Z,23.59
2017-02-27T05:38:09.900Z,23.6
2017-02-27T05:38:50.392Z,23.55
2017-02-27T05:39:30.902Z,23.55
2017-02-27T05:40:11.400Z,23.6
2017-02-27T05:40:51.897Z,23.67
2017-02-27T05:41:32.389Z,23.6
2017-02-27T05:42:12.886Z,23.56
2017-02-27T05:42:53.390Z,23.67
2017-02-27T05:43:33.891Z,23.57
2017-02-27T05:44:14.395Z,23.57
2017-02-27T05:44:54.893Z,23.56
2017-02-27T05:45:35.380Z,23.6
2017-02-27T05:46:15.892Z,23.59
2017-02-27T05:46:56.384Z,23.56
2017-02-27T05:47:36.881Z,23.57
2017-02-27T05:48:17.382Z,23.57
2017-02-27T05:48:57.864Z,23.57
2017-02-27T05:49:38.357Z,23.59
2017-02-27T05:50:18.856Z,23.57
2017-02-27T05:50:59.347Z,23.56
2017-02-27T05:51:39.837Z,23.55
2017-02-27T05:52:20.333Z,23.57
2017-02-27T05:53:00.825Z,23.57
2017-02-27T05:53:41.325Z,23.55
2017-02-27T05:54:21.825Z,23.6
2017-02-27T05:55:02.307Z,23.57
2017-02-27T05:55:42.788Z,23.6
2017-02-27T05:56:23.280Z,23.63
2017-02-27T05:57:03.782Z,23.55
2017-02-27T05:57:44.270Z,23.57
2017-02-27T05:58:24.773Z,23.56
2017-02-27T05:59:05.278Z,23.55
2017-02-27T05:59:45.783Z,23.6
2017-02-27T06:00:26.267Z,23.57
2017-02-27T06:01:06.772Z,23.56
2017-02-27T06:01:47.262Z,23.56
2017-02-27T06:02:27.751Z,23.57
2017-02-27T06:03:08.246Z,23.56
2017-02-27T06:03:48.739Z,23.6
2017-02-27T06:04:29.225Z,23.59
2017-02-27T06:05:09.726Z,23.62
2017-02-27T06:05:50.218Z,23.62
2017-02-27T06:06:30.705Z,23.63
2017-02-27T06:07:11.203Z,23.66
2017-02-27T06:07:51.687Z,23.63
2017-02-27T06:08:32.199Z,23.67
2017-02-27T06:09:12.683Z,23.66
2017-02-27T06:09:53.185Z,23.71
2017-02-27T06:10:33.671Z,23.62
2017-02-27T06:11:14.167Z,23.67
2017-02-27T06:11:54.665Z,23.66
2017-02-27T06:12:35.160Z,23.62
2017-02-27T06:13:15.665Z,23.6
2017-02-27T06:13:56.425Z,23.6
2017-02-27T06:14:36.902Z,23.55
2017-02-27T06:15:17.397Z,23.57
2017-02-27T06:15:57.904Z,23.56
2017-02-27T06:16:38.416Z,23.59
2017-02-27T06:17:18.901Z,23.53
2017-02-27T06:17:59.391Z,23.59
2017-02-27T06:18:39.901Z,23.55
2017-02-27T06:19:20.398Z,23.56
2017-02-27T06:20:00.886Z,23.57
2017-02-27T06:20:41.380Z,23.57
2017-02-27T06:21:21.866Z,23.57
2017-02-27T06:22:02.363Z,23.59
2017-02-27T06:22:42.858Z,23.53
2017-02-27T06:23:23.355Z,23.56
2017-02-27T06:24:03.850Z,23.56
2017-02-27T06:24:44.359Z,23.57
2017-02-27T06:25:24.855Z,23.56
2017-02-27T06:26:05.342Z,23.56
2017-02-27T06:26:45.829Z,23.59
2017-02-27T06:27:26.324Z,23.57
2017-02-27T06:28:06.827Z,23.64
2017-02-27T06:28:47.306Z,23.66
2017-02-27T06:29:27.792Z,23.64
2017-02-27T06:30:08.300Z,23.63
2017-02-27T06:30:48.789Z,23.64
2017-02-27T06:31:29.297Z,23.67
2017-02-27T06:32:09.797Z,23.59
2017-02-27T06:32:50.301Z,23.67
2017-02-27T06:33:30.800Z,23.64
2017-02-27T06:34:11.297Z,23.7
2017-02-27T06:34:51.782Z,23.67
2017-02-27T06:35:32.273Z,23.62
2017-02-27T06:36:12.770Z,23.62
2017-02-27T06:36:53.266Z,23.6
2017-02-27T06:37:33.748Z,23.57
2017-02-27T06:38:14.243Z,23.66
2017-02-27T06:38:54.743Z,23.66
2017-02-27T06:39:35.396Z,23.64
2017-02-27T06:40:15.891Z,23.62
2017-02-27T06:40:56.396Z,23.59
2017-02-27T06:41:36.878Z,23.66
2017-02-27T06:42:17.365Z,23.67
2017-02-27T06:42:57.855Z,23.66
2017-02-27T06:43:38.358Z,23.66
2017-02-27T06:44:18.833Z,23.71
2017-02-27T06:44:59.377Z,23.67
2017-02-27T06:45:39.859Z,23.7
2017-02-27T06:46:20.363Z,23.64
2017-02-27T06:47:00.840Z,23.75
2017-02-27T06:47:41.337Z,23.75
2017-02-27T06:48:21.837Z,23.66
2017-02-27T06:49:02.326Z,23.67
2017-02-27T06:49:42.819Z,23.66
2017-02-27T06:50:23.308Z,23.72
2017-02-27T06:51:03.811Z,23.7
2017-02-27T06:51:44.304Z,23.71
2017-02-27T06:52:24.808Z,23.75
2017-02-27T06:53:05.294Z,23.63
2017-02-27T06:53:45.807Z,23.7
2017-02-27T06:54:26.288Z,23.71
2017-02-27T06:55:06.780Z,23.67
2017-02-27T06:55:47.282Z,23.62
2017-02-27T06:56:27.779Z,23.74
2017-02-27T06:57:08.275Z,23.67
2017-02-27T06:57:48.766Z,23.64
2017-02-27T06:58:29.251Z,23.67
2017-02-27T06:59:09.745Z,23.77
2017-02-27T06:59:50.244Z,23.7
2017-02-27T07:00:30.728Z,23.74
2017-02-27T07:01:11.226Z,23.75
2017-02-27T07:01:51.725Z,23.75
2017-02-27T07:02:32.192Z,23.74
2017-02-27T07:03:12.691Z,23.75
2017-02-27T07:03:53.176Z,23.66
2017-02-27T07:04:33.672Z,23.72
2017-02-27T07:05:14.167Z,23.79
2017-02-27T07:05:54.656Z,23.81
2017-02-27T07:06:36.216Z,23.79
2017-02-27T07:07:16.765Z,23.78
2017-02-27T07:07:57.270Z,23.79
2017-02-27T07:08:37.751Z,23.79
2017-02-27T07:09:18.263Z,23.75
2017-02-27T07:09:58.752Z,23.78
2017-02-27T07:10:39.254Z,23.79
2017-02-27T07:11:19.739Z,23.79
2017-02-27T07:12:00.238Z,23.78
2017-02-27T07:12:40.726Z,23.75
2017-02-27T07:13:21.235Z,23.78
2017-02-27T07:14:01.732Z,23.78
2017-02-27T07:14:42.220Z,23.77
2017-02-27T07:15:22.710Z,23.75
2017-02-27T07:16:03.205Z,23.74
2017-02-27T07:16:43.699Z,23.87
2017-02-27T07:17:24.186Z,23.77
2017-02-27T07:18:04.680Z,23.79
2017-02-27T07:18:45.182Z,23.78
2017-02-27T07:19:25.680Z,23.75
2017-02-27T07:20:06.184Z,23.75
2017-02-27T07:20:46.650Z,23.81
2017-02-27T07:21:27.145Z,23.87
2017-02-27T07:22:07.633Z,23.78
2017-02-27T07:22:48.127Z,23.81
2017-02-27T07:23:28.625Z,23.78
2017-02-27T07:24:09.116Z,23.89
2017-02-27T07:24:49.627Z,23.85
2017-02-27T07:25:30.112Z,23.89
2017-02-27T07:26:10.631Z,23.84
2017-02-27T07:26:51.110Z,23.82
2017-02-27T07:27:31.598Z,23.92
2017-02-27T07:28:12.072Z,23.96
2017-02-27T07:28:52.567Z,23.9
2017-02-27T07:29:33.093Z,23.92
2017-02-27T07:30:13.915Z,23.92
2017-02-27T07:30:54.415Z,23.96
2017-02-27T07:31:34.918Z,23.87
2017-02-27T07:32:15.421Z,23.96
2017-02-27T07:32:55.926Z,23.97
2017-02-27T07:33:36.421Z,23.93
2017-02-27T07:34:16.922Z,23.87
2017-02-27T07:34:57.412Z,23.85
2017-02-27T07:35:37.920Z,23.94
2017-02-27T07:36:18.391Z,23.87
2017-02-27T07:36:58.886Z,23.85
2017-02-27T07:37:39.487Z,23.87
2017-02-27T07:38:19.999Z,23.93
2017-02-27T07:39:00.484Z,23.87
2017-02-27T07:39:40.984Z,23.85
2017-02-27T07:40:21.480Z,23.89
2017-02-27T07:41:01.972Z,23.89
2017-02-27T07:41:42.464Z,23.82
2017-02-27T07:42:23.865Z,23.87
2017-02-27T07:43:04.361Z,23.85
2017-02-27T07:43:44.893Z,23.85
2017-02-27T07:44:25.384Z,23.89
2017-02-27T07:45:05.887Z,23.87
2017-02-27T07:45:46.376Z,23.87
2017-02-27T07:46:26.870Z,23.85
2017-02-27T07:47:07.356Z,23.85
2017-02-27T07:47:47.843Z,23.99
2017-02-27T07:48:28.329Z,23.92
2017-02-27T07:49:08.822Z,23.92
2017-02-27T07:49:50.148Z,24.08
2017-02-27T07:50:30.628Z,23.96
2017-02-27T07:51:11.122Z,24.04
2017-02-27T07:51:51.624Z,24.04
2017-02-27T07:52:32.094Z,24.07
2017-02-27T07:53:12.576Z,24.08
2017-02-27T07:53:53.071Z,24.07
2017-02-27T07:54:33.561Z,24.07
2017-02-27T07:55:14.240Z,24.02
2017-02-27T07:55:54.747Z,24.03
2017-02-27T07:56:35.233Z,24.04
2017-02-27T07:57:15.722Z,23.97
2017-02-27T07:57:56.215Z,23.99
2017-02-27T07:58:36.718Z,24.07
2017-02-27T07:59:17.212Z,24.07
2017-02-27T07:59:57.710Z,24.03
2017-02-27T08:00:38.192Z,24.07
2017-02-27T08:01:18.693Z,24.03
2017-02-27T08:01:59.186Z,24.12
2017-02-27T08:02:39.682Z,24.09
2017-02-27T08:03:20.161Z,24.04
2017-02-27T08:04:00.658Z,24.03
2017-02-27T08:04:41.156Z,24.07
2017-02-27T08:05:21.643Z,24.03
2017-02-27T08:06:02.137Z,24.08
2017-02-27T08:06:42.637Z,24.04
2017-02-27T08:07:23.120Z,24.07
2017-02-27T08:08:03.624Z,24.03
2017-02-27T08:08:44.131Z,24.07
2017-02-27T08:09:24.631Z,24.08
2017-02-27T08:10:05.125Z,24.08
2017-02-27T08:10:45.611Z,24.09
2017-02-27T08:11:26.101Z,24.03
2017-02-27T08:12:06.600Z,24.04
2017-02-27T08:12:47.066Z,24.07
2017-02-27T08:13:27.576Z,24.09
2017-02-27T08:14:08.062Z,24.08
2017-02-27T08:14:48.565Z,24.15
2017-02-27T08:15:29.048Z,24.15
2017-02-27T08:16:09.543Z,24.09
2017-02-27T08:16:50.023Z,24.09
2017-02-27T08:17:30.518Z,24.14
2017-02-27T08:18:11.006Z,24.08
2017-02-27T08:18:52.452Z,24.11
2017-02-27T08:19:32.956Z,24.26
2017-02-27T08:20:13.442Z,24.04
2017-02-27T08:20:53.933Z,24.04
2017-02-27T08:21:34.426Z,24.12
2017-02-27T08:22:14.933Z,24.11
2017-02-27T08:22:55.438Z,24.09
2017-02-27T08:23:35.935Z,23.99
2017-02-27T08:24:16.433Z,24.02
2017-02-27T08:24:56.920Z,24.12
2017-02-27T08:25:37.410Z,24.09
2017-02-27T08:26:18.085Z,24.12
2017-02-27T08:26:58.574Z,24.12
2017-02-27T08:27:39.061Z,24.14
2017-02-27T08:28:19.555Z,24.11
2017-02-27T08:29:00.052Z,24.12
2017-02-27T08:29:40.534Z,24.14
2017-02-27T08:30:21.025Z,24.12
2017-02-27T08:31:01.512Z,24.14
2017-02-27T08:31:42.000Z,24.11
2017-02-27T08:32:22.518Z,24.18
2017-02-27T08:33:03.034Z,24.11
2017-02-27T08:33:43.526Z,24.12
2017-02-27T08:34:24.010Z,24.08
2017-02-27T08:35:04.506Z,24.04
2017-02-27T08:35:44.989Z,24.19
2017-02-27T08:36:25.503Z,24.18
2017-02-27T08:37:06.000Z,24.12
2017-02-27T08:37:46.494Z,24.22
2017-02-27T08:38:26.985Z,24.17
2017-02-27T08:39:07.480Z,24.22
2017-02-27T08:39:47.974Z,24.22
2017-02-27T08:40:28.478Z,24.21
2017-02-27T08:41:08.971Z,24.15
2017-02-27T08:41:49.462Z,24.11
2017-02-27T08:42:29.965Z,24.17
2017-02-27T08:43:10.456Z,24.19
2017-02-27T08:43:50.945Z,24.22
2017-02-27T08:44:31.440Z,24.17
2017-02-27T08:45:11.942Z,24.21
2017-02-27T08:45:52.439Z,24.19
2017-02-27T08:46:32.939Z,24.14
2017-02-27T08:47:13.417Z,24.18
2017-02-27T08:47:53.913Z,24.21
2017-02-27T08:48:34.416Z,24.21
2017-02-27T08:49:14.897Z,24.19
2017-02-27T08:49:55.388Z,24.22
2017-02-27T08:50:35.891Z,24.21
2017-02-27T08:51:16.378Z,24.21
2017-02-27T08:51:56.876Z,24.18
2017-02-27T08:52:37.375Z,24.15
2017-02-27T08:53:17.862Z,24.17
2017-02-27T08:53:58.344Z,24.17
2017-02-27T08:54:38.848Z,24.27
2017-02-27T08:55:19.330Z,24.17
2017-02-27T08:55:59.824Z,24.14
2017-02-27T08:56:40.328Z,24.15
2017-02-27T08:57:20.820Z,24.19
2017-02-27T08:58:01.308Z,24.15